createdAt,value
2018-08-19T00:02:20.289Z,6.33
2018-08-19T00:05:05.962Z,6.63
2018-08-19T00:07:40.899Z,6.10
2018-08-19T00:10:10.235Z,5.97
2018-08-19T00:12:44.574Z,6.00
2018-08-19T00:15:14.721Z,7.27
2018-08-19T00:17:44.289Z,6.17
2018-08-19T00:20:14.197Z,6.80
2018-08-19T00:22:43.523Z,6.53
2018-08-19T00:25:22.668Z,5.53
2018-08-19T00:27:51.999Z,5.20
2018-08-19T00:30:21.372Z,5.50
2018-08-19T00:32:50.695Z,6.50
2018-08-19T00:35:20.046Z,5.93
2018-08-19T00:37:49.359Z,5.00
2018-08-19T00:40:18.676Z,6.50
2018-08-19T00:42:48.022Z,6.70
2018-08-19T00:45:17.804Z,8.23
2018-08-19T00:47:47.940Z,5.77
2018-08-19T00:50:17.324Z,5.43
2018-08-19T00:52:46.655Z,5.50
2018-08-19T00:55:15.987Z,7.53
2018-08-19T00:57:59.986Z,5.20
2018-08-19T01:00:29.830Z,5.57
2018-08-19T01:02:59.312Z,5.67
2018-08-19T01:05:29.015Z,6.20
2018-08-19T01:07:59.232Z,5.87
2018-08-19T01:10:28.656Z,6.47
2018-08-19T01:12:57.973Z,7.00
2018-08-19T01:15:27.415Z,6.23
2018-08-19T01:17:57.712Z,5.90
2018-08-19T01:20:27.037Z,6.03
2018-08-19T01:22:56.388Z,5.33
2018-08-19T01:25:25.699Z,5.97
2018-08-19T01:27:55.040Z,5.43
2018-08-19T01:30:25.941Z,6.63
2018-08-19T01:32:55.292Z,5.93
2018-08-19T01:35:29.998Z,8.40
2018-08-19T01:37:59.312Z,6.03
2018-08-19T01:40:28.676Z,5.70
2018-08-19T01:42:58.775Z,5.73
2018-08-19T01:45:28.220Z,5.90
2018-08-19T01:47:57.587Z,5.93
2018-08-19T01:50:26.987Z,6.77
2018-08-19T01:52:56.346Z,6.07
2018-08-19T01:55:25.666Z,6.00
2018-08-19T01:57:56.187Z,5.90
2018-08-19T02:00:25.500Z,5.80
2018-08-19T02:02:59.084Z,6.00
2018-08-19T02:05:28.401Z,5.50
2018-08-19T02:07:59.612Z,6.10
2018-08-19T02:10:29.860Z,5.93
2018-08-19T02:12:59.643Z,5.80
2018-08-19T02:15:29.939Z,6.13
2018-08-19T02:18:06.028Z,5.60
2018-08-19T02:20:39.675Z,6.00
2018-08-19T02:23:10.469Z,5.73
2018-08-19T02:25:45.801Z,5.37
2018-08-19T02:28:19.640Z,6.00
2018-08-19T02:30:54.144Z,5.80
2018-08-19T02:33:24.247Z,6.70
2018-08-19T02:35:59.211Z,6.03
2018-08-19T02:38:28.555Z,6.30
2018-08-19T02:40:57.878Z,6.60
2018-08-19T02:43:27.181Z,6.33
2018-08-19T02:45:56.511Z,6.33
2018-08-19T02:48:44.619Z,6.67
2018-08-19T02:51:15.227Z,6.07
2018-08-19T02:53:45.798Z,7.23
2018-08-19T02:56:15.886Z,6.73
2018-08-19T02:58:46.221Z,7.20
2018-08-19T03:01:16.723Z,5.63
2018-08-19T03:03:46.071Z,6.07
2018-08-19T03:06:16.354Z,5.97
2018-08-19T03:08:50.915Z,6.27
2018-08-19T03:11:21.645Z,6.70
2018-08-19T03:13:50.952Z,6.67
2018-08-19T03:16:20.334Z,5.60
2018-08-19T03:18:51.555Z,5.70
2018-08-19T03:21:21.803Z,6.23
2018-08-19T03:23:52.694Z,6.00
2018-08-19T03:26:22.131Z,5.70
2018-08-19T03:28:51.437Z,7.03
2018-08-19T03:31:20.772Z,5.73
2018-08-19T03:33:50.520Z,5.70
2018-08-19T03:36:19.902Z,6.10
2018-08-19T03:38:49.200Z,6.83
2018-08-19T03:41:18.529Z,5.80
2018-08-19T03:43:58.997Z,6.20
2018-08-19T03:46:29.626Z,5.80
2018-08-19T03:48:58.935Z,5.83
2018-08-19T03:51:28.281Z,5.70
2018-08-19T03:53:57.584Z,6.00
2018-08-19T03:56:27.424Z,5.50
2018-08-19T03:58:58.339Z,5.73
2018-08-19T04:01:38.254Z,6.20
2018-08-19T04:04:07.570Z,5.20
2018-08-19T04:06:38.848Z,6.50
2018-08-19T04:09:08.288Z,5.87
2018-08-19T04:11:37.667Z,6.17
2018-08-19T04:14:37.985Z,6.43
2018-08-19T04:17:08.209Z,6.07
2018-08-19T04:19:37.560Z,5.57
2018-08-19T04:22:07.414Z,6.93
2018-08-19T04:24:37.007Z,6.17
2018-08-19T04:27:08.994Z,6.00
2018-08-19T04:29:38.554Z,6.43
2018-08-19T04:32:11.399Z,6.30
2018-08-19T04:34:41.459Z,5.70
2018-08-19T04:37:10.823Z,5.60
2018-08-19T04:39:40.230Z,6.33
2018-08-19T04:42:09.592Z,7.10
2018-08-19T04:44:38.942Z,7.07
2018-08-19T04:47:20.958Z,6.77
2018-08-19T04:49:52.234Z,7.33
2018-08-19T04:52:22.751Z,7.10
2018-08-19T04:54:53.240Z,7.43
2018-08-19T04:57:22.642Z,7.10
2018-08-19T04:59:52.019Z,7.13
2018-08-19T05:02:21.653Z,7.50
2018-08-19T05:04:50.962Z,7.53
2018-08-19T05:07:20.372Z,7.00
2018-08-19T05:09:50.233Z,9.50
2018-08-19T05:12:19.940Z,7.37
2018-08-19T05:14:50.286Z,8.03
2018-08-19T05:17:19.626Z,8.27
2018-08-19T05:19:49.330Z,8.53
2018-08-19T05:22:18.691Z,8.00
2018-08-19T05:24:48.059Z,8.97
2018-08-19T05:27:17.612Z,8.43
2018-08-19T05:29:47.806Z,7.50
2018-08-19T05:32:17.172Z,7.60
2018-08-19T05:34:46.532Z,7.70
2018-08-19T05:37:15.854Z,7.27
2018-08-19T05:39:51.281Z,7.53
2018-08-19T05:42:20.635Z,7.00
2018-08-19T05:44:49.993Z,6.93
2018-08-19T05:47:19.372Z,8.27
2018-08-19T05:50:19.151Z,7.73
2018-08-19T05:52:48.563Z,7.37
2018-08-19T05:55:18.013Z,7.77
2018-08-19T05:57:47.384Z,8.20
2018-08-19T06:00:23.190Z,7.87
2018-08-19T06:02:53.528Z,7.90
2018-08-19T06:05:22.896Z,8.47
2018-08-19T06:07:57.668Z,8.90
2018-08-19T06:10:27.359Z,9.53
2018-08-19T06:12:56.810Z,7.73
2018-08-19T06:15:26.996Z,8.57
2018-08-19T06:17:56.376Z,8.00
2018-08-19T06:20:29.177Z,9.30
2018-08-19T06:22:58.517Z,9.67
2018-08-19T06:25:27.928Z,9.07
2018-08-19T06:27:58.241Z,8.30
2018-08-19T06:30:27.683Z,9.00
2018-08-19T06:32:57.095Z,8.63
2018-08-19T06:35:26.484Z,9.10
2018-08-19T06:37:55.827Z,10.30
2018-08-19T06:40:25.190Z,10.50
2018-08-19T06:42:54.524Z,10.10
2018-08-19T06:45:23.903Z,10.90
2018-08-19T06:47:53.255Z,12.20
2018-08-19T06:50:25.795Z,9.20
2018-08-19T06:52:55.738Z,11.60
2018-08-19T06:55:25.202Z,10.87
2018-08-19T06:57:55.947Z,16.73
2018-08-19T07:00:30.021Z,23.00
2018-08-19T07:03:01.064Z,11.90
2018-08-19T07:05:30.565Z,12.03
2018-08-19T07:08:00.330Z,11.57
2018-08-19T07:10:34.949Z,17.47
2018-08-19T07:13:06.411Z,12.83
2018-08-19T07:15:37.036Z,10.60
2018-08-19T07:18:07.824Z,11.70
2018-08-19T07:20:37.841Z,12.90
2018-08-19T07:23:07.663Z,16.70
2018-08-19T07:25:38.814Z,14.77
2018-08-19T07:28:09.498Z,13.20
2018-08-19T07:30:39.313Z,13.27
2018-08-19T07:33:08.801Z,11.67
2018-08-19T07:35:38.179Z,11.43
2018-08-19T07:38:07.904Z,11.77
2018-08-19T07:40:37.695Z,13.40
2018-08-19T07:43:07.092Z,12.90
2018-08-19T07:45:36.484Z,12.47
2018-08-19T07:48:06.195Z,12.10
2018-08-19T07:50:35.595Z,12.30
2018-08-19T07:53:05.063Z,13.43
2018-08-19T07:55:34.423Z,11.30
2018-08-19T07:58:03.787Z,11.07
2018-08-19T08:00:39.058Z,12.63
2018-08-19T08:03:08.456Z,12.57
2018-08-19T08:05:43.026Z,12.50
2018-08-19T08:08:12.403Z,13.27
2018-08-19T08:10:41.732Z,13.03
2018-08-19T08:13:12.231Z,10.90
2018-08-19T08:15:49.643Z,13.60
2018-08-19T08:18:19.010Z,12.87
2018-08-19T08:20:48.506Z,12.20
2018-08-19T08:23:20.097Z,11.63
2018-08-19T08:25:49.963Z,13.80
2018-08-19T08:28:19.463Z,13.00
2018-08-19T08:30:48.804Z,11.57
2018-08-19T08:33:18.147Z,13.33
2018-08-19T08:35:55.386Z,10.60
2018-08-19T08:38:24.790Z,11.50
2018-08-19T08:40:54.888Z,11.43
2018-08-19T08:43:24.248Z,11.30
2018-08-19T08:45:56.210Z,10.90
2018-08-19T08:48:25.732Z,8.80
2018-08-19T08:50:55.126Z,9.90
2018-08-19T08:53:29.948Z,10.13
2018-08-19T08:55:59.272Z,10.00
2018-08-19T08:58:28.981Z,8.90
2018-08-19T09:00:58.443Z,9.43
2018-08-19T09:03:27.876Z,9.37
2018-08-19T09:05:57.385Z,9.20
2018-08-19T09:08:26.801Z,8.70
2018-08-19T09:10:56.451Z,8.27
2018-08-19T09:13:26.259Z,8.60
2018-08-19T09:15:55.661Z,7.77
2018-08-19T09:18:25.039Z,7.60
2018-08-19T09:20:54.440Z,7.13
2018-08-19T09:23:23.916Z,7.77
2018-08-19T09:25:53.892Z,7.20
2018-08-19T09:28:23.305Z,5.80
2018-08-19T09:30:52.646Z,6.47
2018-08-19T09:33:21.967Z,7.60
2018-08-19T09:35:51.351Z,7.20
2018-08-19T09:38:22.851Z,6.27
2018-08-19T09:40:52.717Z,6.90
2018-08-19T09:43:21.978Z,7.27
2018-08-19T09:45:51.559Z,7.07
2018-08-19T09:48:20.907Z,6.90
2018-08-19T09:50:50.330Z,6.87
2018-08-19T09:53:19.663Z,6.83
2018-08-19T09:55:55.450Z,7.60
2018-08-19T09:58:24.782Z,7.20
2018-08-19T10:00:59.379Z,8.23
2018-08-19T10:03:31.124Z,6.50
2018-08-19T10:06:00.655Z,8.03
2018-08-19T10:08:29.969Z,6.80
2018-08-19T10:10:59.389Z,7.17
2018-08-19T10:13:28.759Z,6.93
2018-08-19T10:15:58.150Z,6.47
2018-08-19T10:18:27.465Z,7.20
2018-08-19T10:20:57.543Z,6.97
2018-08-19T10:23:26.879Z,7.83
2018-08-19T10:25:56.484Z,6.80
2018-08-19T10:28:25.789Z,7.20
2018-08-19T10:30:58.894Z,7.93
2018-08-19T10:33:28.229Z,6.97
2018-08-19T10:35:58.823Z,6.63
2018-08-19T10:38:28.162Z,6.57
2018-08-19T10:41:03.092Z,7.70
2018-08-19T10:43:32.420Z,5.93
2018-08-19T10:46:01.800Z,6.63
2018-08-19T10:48:31.604Z,6.30
2018-08-19T10:51:02.895Z,7.27
2018-08-19T10:53:32.581Z,6.00
2018-08-19T10:56:03.087Z,6.97
2018-08-19T10:58:32.847Z,6.43
2018-08-19T11:01:02.260Z,5.67
2018-08-19T11:03:31.629Z,6.10
2018-08-19T11:06:15.405Z,5.90
2018-08-19T11:08:48.886Z,6.77
2018-08-19T11:11:18.247Z,6.27
2018-08-19T11:13:47.613Z,5.97
2018-08-19T11:16:17.049Z,6.33
2018-08-19T11:18:47.564Z,6.20
2018-08-19T11:21:30.248Z,6.33
2018-08-19T11:23:59.978Z,5.90
2018-08-19T11:26:29.391Z,6.03
2018-08-19T11:28:59.615Z,5.87
2018-08-19T11:31:34.331Z,5.80
2018-08-19T11:34:06.092Z,5.97
2018-08-19T11:36:40.475Z,6.13
2018-08-19T11:39:12.402Z,6.07
2018-08-19T11:41:41.804Z,6.20
2018-08-19T11:44:14.117Z,6.73
2018-08-19T11:46:43.527Z,6.57
2018-08-19T11:49:14.275Z,6.10
2018-08-19T11:52:02.226Z,5.53
2018-08-19T11:54:32.402Z,6.53
2018-08-19T11:57:06.862Z,5.90
2018-08-19T11:59:36.952Z,6.10
2018-08-19T12:02:08.097Z,6.80
2018-08-19T12:04:37.411Z,5.80
2018-08-19T12:07:07.008Z,5.53
2018-08-19T12:09:36.524Z,6.17
2018-08-19T12:12:05.851Z,5.83
2018-08-19T12:14:36.802Z,5.97
2018-08-19T12:17:08.513Z,6.60
2018-08-19T12:19:41.000Z,6.00
2018-08-19T12:22:10.680Z,6.10
2018-08-19T12:24:43.736Z,5.27
2018-08-19T12:27:14.392Z,5.80
2018-08-19T12:29:44.423Z,5.83
2018-08-19T12:32:18.008Z,5.77
2018-08-19T12:34:52.411Z,5.00
2018-08-19T12:37:23.133Z,5.77
2018-08-19T12:39:52.860Z,5.20
2018-08-19T12:42:22.263Z,5.67
2018-08-19T12:44:58.283Z,5.80
2018-08-19T12:47:28.207Z,5.50
2018-08-19T12:49:58.963Z,5.33
2018-08-19T12:52:29.615Z,5.30
2018-08-19T12:55:05.135Z,6.33
2018-08-19T12:57:35.200Z,5.37
2018-08-19T13:00:15.631Z,5.40
2018-08-19T13:02:46.311Z,5.57
2018-08-19T13:05:16.595Z,5.83
2018-08-19T13:07:46.203Z,5.00
2018-08-19T13:10:15.898Z,4.97
2018-08-19T13:12:56.543Z,5.37
2018-08-19T13:15:27.812Z,5.40
2018-08-19T13:17:57.230Z,5.53
2018-08-19T13:20:26.920Z,5.47
2018-08-19T13:23:02.643Z,4.80
2018-08-19T13:25:32.358Z,6.47
2018-08-19T13:28:01.728Z,5.43
2018-08-19T13:30:31.116Z,6.40
2018-08-19T13:33:00.499Z,5.80
2018-08-19T13:35:29.886Z,5.13
2018-08-19T13:37:59.288Z,5.93
2018-08-19T13:40:28.626Z,8.83
2018-08-19T13:42:58.021Z,8.00
2018-08-19T13:45:27.531Z,5.80
2018-08-19T13:47:56.938Z,5.17
2018-08-19T13:50:26.371Z,5.70
2018-08-19T13:52:55.735Z,5.27
2018-08-19T13:55:25.378Z,5.73
2018-08-19T13:57:54.715Z,5.27
2018-08-19T14:00:28.269Z,5.57
2018-08-19T14:02:57.625Z,4.93
2018-08-19T14:05:27.005Z,5.53
2018-08-19T14:07:56.380Z,5.93
2018-08-19T14:10:25.792Z,6.33
2018-08-19T14:12:55.134Z,5.10
2018-08-19T14:15:24.540Z,5.80
2018-08-19T14:17:53.923Z,5.30
2018-08-19T14:20:23.435Z,4.97
2018-08-19T14:22:52.771Z,6.10
2018-08-19T14:25:22.352Z,5.60
2018-08-19T14:27:51.683Z,6.37
2018-08-19T14:30:21.182Z,5.30
2018-08-19T14:32:50.519Z,5.37
2018-08-19T14:35:19.890Z,5.97
2018-08-19T14:37:49.214Z,5.40
2018-08-19T14:40:19.290Z,6.17
2018-08-19T14:42:48.502Z,5.67
2018-08-19T14:45:17.866Z,4.90
2018-08-19T14:47:47.264Z,5.23
2018-08-19T14:50:18.419Z,6.00
2018-08-19T14:52:47.772Z,5.63
2018-08-19T14:55:17.106Z,5.93
2018-08-19T14:57:46.475Z,5.90
2018-08-19T15:00:17.068Z,6.80
2018-08-19T15:02:46.463Z,5.60
2018-08-19T15:05:18.379Z,5.70
2018-08-19T15:07:48.073Z,6.07
2018-08-19T15:10:19.812Z,5.87
2018-08-19T15:12:49.196Z,6.97
2018-08-19T15:15:18.564Z,6.23
2018-08-19T15:18:00.930Z,6.57
2018-08-19T15:20:33.437Z,5.50
2018-08-19T15:23:15.228Z,6.30
2018-08-19T15:25:44.723Z,6.07
2018-08-19T15:28:14.309Z,6.40
2018-08-19T15:30:43.677Z,5.67
2018-08-19T15:33:14.010Z,5.80
2018-08-19T15:35:43.543Z,4.87
2018-08-19T15:38:13.243Z,5.83
2018-08-19T15:40:45.357Z,6.10
2018-08-19T15:43:14.834Z,6.07
2018-08-19T15:45:44.816Z,5.60
2018-08-19T15:48:14.193Z,6.10
2018-08-19T15:50:43.608Z,6.00
2018-08-19T15:53:13.001Z,5.50
2018-08-19T15:55:42.385Z,5.03
2018-08-19T15:58:11.783Z,5.70
2018-08-19T16:00:42.238Z,6.40
2018-08-19T16:03:12.473Z,5.20
2018-08-19T16:05:41.823Z,6.03
2018-08-19T16:08:11.179Z,7.50
2018-08-19T16:10:40.512Z,5.63
2018-08-19T16:13:11.181Z,6.33
2018-08-19T16:15:40.503Z,6.03
2018-08-19T16:18:09.880Z,6.80
2018-08-19T16:20:39.247Z,6.03
2018-08-19T16:23:08.634Z,5.93
2018-08-19T16:25:37.994Z,5.40
2018-08-19T16:28:07.354Z,6.20
2018-08-19T16:30:36.771Z,5.90
2018-08-19T16:33:06.152Z,5.90
2018-08-19T16:35:35.502Z,6.00
2018-08-19T16:38:04.959Z,6.33
2018-08-19T16:40:34.360Z,5.70
2018-08-19T16:43:03.707Z,6.97
2018-08-19T16:45:33.071Z,5.53
2018-08-19T16:48:02.421Z,5.70
2018-08-19T16:50:31.952Z,5.60
2018-08-19T16:53:01.202Z,6.07
2018-08-19T16:55:30.618Z,5.93
2018-08-19T16:58:00.010Z,5.40
2018-08-19T17:00:29.500Z,6.27
2018-08-19T17:02:59.025Z,5.73
2018-08-19T17:05:31.493Z,5.67
2018-08-19T17:08:00.825Z,5.90
2018-08-19T17:10:30.496Z,5.47
2018-08-19T17:12:59.861Z,5.60
2018-08-19T17:15:29.507Z,5.77
2018-08-19T17:17:59.461Z,5.90
2018-08-19T17:20:28.916Z,5.57
2018-08-19T17:22:58.250Z,6.07
2018-08-19T17:25:27.664Z,5.30
2018-08-19T17:27:59.948Z,5.67
2018-08-19T17:30:29.317Z,6.13
2018-08-19T17:33:02.833Z,5.47
2018-08-19T17:35:32.823Z,5.30
2018-08-19T17:38:02.213Z,5.03
2018-08-19T17:40:32.268Z,5.57
2018-08-19T17:43:02.835Z,5.80
2018-08-19T17:45:32.406Z,6.00
2018-08-19T17:48:01.757Z,5.80
2018-08-19T17:50:31.154Z,6.17
2018-08-19T17:53:01.883Z,5.43
2018-08-19T17:55:31.308Z,5.30
2018-08-19T17:58:00.892Z,5.43
2018-08-19T18:00:30.265Z,5.47
2018-08-19T18:02:59.621Z,5.40
2018-08-19T18:05:29.063Z,5.33
2018-08-19T18:07:58.395Z,5.03
2018-08-19T18:10:27.989Z,5.53
2018-08-19T18:12:57.429Z,5.03
2018-08-19T18:15:26.822Z,5.50
2018-08-19T18:18:01.933Z,5.53
2018-08-19T18:20:35.947Z,5.47
2018-08-19T18:23:07.639Z,5.87
2018-08-19T18:25:37.499Z,5.40
2018-08-19T18:28:17.039Z,6.13
2018-08-19T18:30:51.149Z,5.13
2018-08-19T18:33:21.187Z,6.30
2018-08-19T18:35:50.743Z,6.80
2018-08-19T18:38:28.622Z,7.10
2018-08-19T18:40:58.064Z,6.90
2018-08-19T18:43:27.621Z,6.17
2018-08-19T18:45:57.289Z,6.20
2018-08-19T18:48:27.047Z,6.73
2018-08-19T18:50:57.007Z,6.97
2018-08-19T18:53:27.775Z,7.53
2018-08-19T18:55:57.104Z,6.77
2018-08-19T18:58:27.164Z,6.30
2018-08-19T19:00:59.851Z,7.20
2018-08-19T19:03:29.586Z,6.40
2018-08-19T19:05:59.445Z,6.40
2018-08-19T19:08:29.159Z,6.53
2018-08-19T19:11:05.108Z,5.70
2018-08-19T19:13:35.989Z,5.50
2018-08-19T19:16:06.176Z,5.60
2018-08-19T19:18:35.737Z,8.43
2018-08-19T19:21:06.058Z,6.90
2018-08-19T19:23:38.186Z,6.53
2018-08-19T19:26:08.279Z,7.40
2018-08-19T19:28:37.813Z,6.30
2018-08-19T19:31:12.443Z,6.90
2018-08-19T19:33:41.813Z,6.80
2018-08-19T19:36:16.373Z,8.03
2018-08-19T19:38:51.107Z,6.73
2018-08-19T19:41:26.704Z,7.17
2018-08-19T19:43:56.154Z,6.80
2018-08-19T19:46:25.801Z,7.23
2018-08-19T19:48:56.176Z,6.63
2018-08-19T19:51:25.902Z,5.50
2018-08-19T19:53:55.297Z,6.70
2018-08-19T19:56:24.675Z,6.63
2018-08-19T19:58:54.079Z,7.00
2018-08-19T20:01:24.264Z,6.53
2018-08-19T20:03:55.266Z,5.47
2018-08-19T20:06:25.178Z,6.10
2018-08-19T20:08:58.304Z,6.07
2018-08-19T20:11:28.310Z,6.30
2018-08-19T20:14:01.555Z,7.00
2018-08-19T20:16:30.931Z,6.03
2018-08-19T20:19:00.435Z,6.67
2018-08-19T20:21:30.787Z,7.17
2018-08-19T20:24:00.272Z,6.57
2018-08-19T20:26:29.667Z,7.37
2018-08-19T20:29:00.489Z,6.30
2018-08-19T20:31:29.931Z,5.70
2018-08-19T20:33:59.457Z,6.83
2018-08-19T20:36:28.836Z,6.90
2018-08-19T20:38:58.227Z,6.60
2018-08-19T20:41:27.608Z,7.33
2018-08-19T20:43:57.037Z,6.83
2018-08-19T20:46:26.393Z,7.07
2018-08-19T20:48:56.687Z,6.80
2018-08-19T20:51:26.056Z,6.50
2018-08-19T20:53:55.439Z,7.23
2018-08-19T20:56:24.943Z,5.93
2018-08-19T20:58:54.321Z,7.23
2018-08-19T21:01:27.569Z,6.53
2018-08-19T21:03:57.159Z,6.30
2018-08-19T21:06:26.525Z,6.13
2018-08-19T21:08:55.899Z,6.60
2018-08-19T21:11:25.264Z,6.70
2018-08-19T21:13:54.631Z,6.83
2018-08-19T21:16:24.001Z,6.33
2018-08-19T21:18:53.735Z,6.20
2018-08-19T21:21:24.057Z,6.67
2018-08-19T21:23:53.448Z,7.10
2018-08-19T21:26:22.820Z,6.70
2018-08-19T21:28:56.336Z,7.20
2018-08-19T21:31:25.702Z,6.80
2018-08-19T21:33:55.404Z,7.03
2018-08-19T21:36:24.763Z,6.40
2018-08-19T21:38:54.120Z,12.47
2018-08-19T21:41:28.221Z,8.90
2018-08-19T21:43:57.565Z,6.90
2018-08-19T21:46:27.079Z,6.73
2018-08-19T21:48:56.424Z,6.03
2018-08-19T21:51:25.817Z,6.87
2018-08-19T21:53:55.176Z,7.67
2018-08-19T21:56:24.555Z,7.03
2018-08-19T21:58:53.924Z,7.00
2018-08-19T22:01:27.472Z,6.50
2018-08-19T22:03:56.819Z,6.40
2018-08-19T22:06:26.214Z,6.60
2018-08-19T22:08:55.572Z,6.90
2018-08-19T22:11:25.013Z,6.17
2018-08-19T22:13:54.421Z,6.57
2018-08-19T22:16:23.906Z,7.27
2018-08-19T22:18:53.334Z,7.07
2018-08-19T22:21:24.038Z,7.00
2018-08-19T22:23:56.506Z,6.37
2018-08-19T22:26:25.882Z,6.70
2018-08-19T22:29:10.318Z,6.90
2018-08-19T22:31:39.725Z,6.20
2018-08-19T22:34:09.087Z,6.50
2018-08-19T22:36:38.530Z,6.50
2018-08-19T22:39:09.612Z,6.33
2018-08-19T22:41:39.005Z,6.17
2018-08-19T22:44:08.490Z,6.90
2018-08-19T22:46:38.465Z,6.10
2018-08-19T22:49:07.827Z,6.60
2018-08-19T22:51:37.298Z,6.90
2018-08-19T22:54:06.668Z,5.97
2018-08-19T22:56:36.024Z,6.30
2018-08-19T22:59:07.661Z,7.40
2018-08-19T23:01:43.513Z,6.10
2018-08-19T23:04:14.419Z,6.80
2018-08-19T23:06:43.947Z,7.10
2018-08-19T23:09:13.323Z,6.70
2018-08-19T23:11:47.355Z,6.73
2018-08-19T23:14:27.698Z,7.30
2018-08-19T23:16:57.052Z,7.47
2018-08-19T23:19:26.418Z,6.77
2018-08-19T23:21:56.111Z,7.43
2018-08-19T23:24:25.482Z,7.30
2018-08-19T23:26:54.857Z,6.97
2018-08-19T23:29:24.574Z,6.30
2018-08-19T23:31:53.940Z,6.63
2018-08-19T23:34:23.301Z,7.50
2018-08-19T23:36:52.640Z,7.07
2018-08-19T23:39:22.019Z,7.17
2018-08-19T23:41:51.390Z,6.87
2018-08-19T23:44:20.779Z,7.00
2018-08-19T23:46:50.139Z,6.40
2018-08-19T23:49:19.511Z,7.33
2018-08-19T23:51:48.881Z,6.93
2018-08-19T23:54:18.242Z,7.27
2018-08-19T23:56:47.914Z,6.33
2018-08-19T23:59:21.473Z,6.40
